createdAt,value
2022-09-09T00:00:41.849Z,40.79
2022-09-09T00:01:24.664Z,41.13
2022-09-09T00:02:18.330Z,41.22
2022-09-09T00:03:03.728Z,41.33
2022-09-09T00:03:58.303Z,41.29
2022-09-09T00:04:51.800Z,41.32
2022-09-09T00:05:43.138Z,40.93
2022-09-09T00:06:40.540Z,41.07
2022-09-09T00:07:37.724Z,41.42
2022-09-09T00:08:34.955Z,41.42
2022-09-09T00:09:25.974Z,41.27
2022-09-09T00:10:19.271Z,41.23
2022-09-09T00:11:10.498Z,41.48
2022-09-09T00:11:54.620Z,41.49
2022-09-09T00:12:53.311Z,41.53
2022-09-09T00:14:07.655Z,41.16
2022-09-09T00:14:49.790Z,41.43
2022-09-09T00:15:41.631Z,41.33
2022-09-09T00:16:23.719Z,41.49
2022-09-09T00:17:14.042Z,41.40
2022-09-09T00:18:12.533Z,41.30
2022-09-09T00:19:07.343Z,41.20
2022-09-09T00:20:10.741Z,41.46
2022-09-09T00:21:07.669Z,41.37
2022-09-09T00:22:02.764Z,41.59
2022-09-09T00:23:05.432Z,41.76
2022-09-09T00:24:00.947Z,41.78
2022-09-09T00:24:52.126Z,41.70
2022-09-09T00:26:00.082Z,41.85
2022-09-09T00:26:50.720Z,41.52
2022-09-09T00:27:43.471Z,41.33
2022-09-09T00:28:40.378Z,41.66
2022-09-09T00:29:43.181Z,41.41
2022-09-09T00:30:38.185Z,41.39
2022-09-09T00:31:35.678Z,41.60
2022-09-09T00:32:27.901Z,41.43
2022-09-09T00:33:32.261Z,41.23
2022-09-09T00:34:29.392Z,41.68
2022-09-09T00:35:30.393Z,41.61
2022-09-09T00:36:24.010Z,41.32
2022-09-09T00:37:19.114Z,41.59
2022-09-09T00:38:12.860Z,41.57
2022-09-09T00:39:06.404Z,41.53
2022-09-09T00:39:56.795Z,41.52
2022-09-09T00:40:47.322Z,41.51
2022-09-09T00:41:40.976Z,41.60
2022-09-09T00:42:38.630Z,41.31
2022-09-09T00:43:39.114Z,41.60
2022-09-09T00:44:46.579Z,41.46
2022-09-09T00:45:50.533Z,41.34
2022-09-09T00:46:52.990Z,41.62
2022-09-09T00:47:56.895Z,41.46
2022-09-09T00:48:48.175Z,41.71
2022-09-09T00:49:49.396Z,41.76
2022-09-09T00:50:53.836Z,41.34
2022-09-09T00:51:59.194Z,41.61
2022-09-09T00:53:11.740Z,41.80
2022-09-09T00:54:17.576Z,41.30
2022-09-09T00:55:24.310Z,41.42
2022-09-09T00:56:14.131Z,41.44
2022-09-09T00:56:58.725Z,41.46
2022-09-09T00:57:56.128Z,41.58
2022-09-09T00:58:49.597Z,41.47
2022-09-09T00:59:47.149Z,41.62
2022-09-09T01:00:39.787Z,41.27
2022-09-09T01:01:33.197Z,41.51
2022-09-09T01:02:25.548Z,41.32
2022-09-09T01:03:18.616Z,41.52
2022-09-09T01:04:10.609Z,41.50
2022-09-09T01:05:00.164Z,41.52
2022-09-09T01:05:53.839Z,41.43
2022-09-09T01:06:46.193Z,41.62
2022-09-09T01:07:36.209Z,41.54
2022-09-09T01:08:33.502Z,41.59
2022-09-09T01:09:40.249Z,41.24
2022-09-09T01:10:53.640Z,41.37
2022-09-09T01:11:38.958Z,41.55
2022-09-09T01:12:30.751Z,41.41
2022-09-09T01:13:29.929Z,41.63
2022-09-09T01:14:26.883Z,41.59
2022-09-09T01:15:19.421Z,41.71
2022-09-09T01:16:11.036Z,41.67
2022-09-09T01:17:01.932Z,41.63
2022-09-09T01:17:53.958Z,41.66
2022-09-09T01:19:55.341Z,41.35
2022-09-09T01:21:01.042Z,41.41
2022-09-09T01:22:03.099Z,41.56
2022-09-09T01:22:56.818Z,41.61
2022-09-09T01:24:14.211Z,41.89
2022-09-09T01:25:12.050Z,41.39
2022-09-09T01:26:11.444Z,41.56
2022-09-09T01:27:02.402Z,41.91
2022-09-09T01:27:54.346Z,41.77
2022-09-09T01:28:52.282Z,41.77
2022-09-09T01:29:46.229Z,41.56
2022-09-09T01:30:39.235Z,41.71
2022-09-09T01:31:30.121Z,41.75
2022-09-09T01:32:34.189Z,41.62
2022-09-09T01:33:29.049Z,41.46
2022-09-09T01:35:31.907Z,41.18
2022-09-09T01:36:14.618Z,41.33
2022-09-09T01:37:08.281Z,41.59
2022-09-09T01:38:01.211Z,41.31
2022-09-09T01:38:58.842Z,41.22
2022-09-09T01:39:54.276Z,41.55
2022-09-09T01:40:43.047Z,41.22
2022-09-09T01:41:32.724Z,41.33
2022-09-09T01:42:24.781Z,41.54
2022-09-09T01:43:14.192Z,41.46
2022-09-09T01:44:03.853Z,41.43
2022-09-09T01:45:01.674Z,41.33
2022-09-09T01:45:52.358Z,41.56
2022-09-09T01:46:43.856Z,41.54
2022-09-09T01:47:38.559Z,41.59
2022-09-09T01:48:33.462Z,41.42
2022-09-09T01:49:27.053Z,41.44
2022-09-09T01:50:26.371Z,41.31
2022-09-09T01:51:16.527Z,41.32
2022-09-09T01:52:06.646Z,41.29
2022-09-09T01:52:56.516Z,41.26
2022-09-09T01:53:47.095Z,41.47
2022-09-09T01:54:36.155Z,41.26
2022-09-09T01:55:29.575Z,41.54
2022-09-09T01:56:20.442Z,41.43
2022-09-09T01:57:02.872Z,41.48
2022-09-09T01:58:06.297Z,41.56
2022-09-09T01:59:04.656Z,41.49
2022-09-09T01:59:57.169Z,41.50
2022-09-09T02:00:51.243Z,41.12
2022-09-09T02:01:56.355Z,41.25
2022-09-09T02:02:51.623Z,41.11
2022-09-09T02:03:41.683Z,41.22
2022-09-09T02:04:28.781Z,41.21
2022-09-09T02:05:31.099Z,41.27
2022-09-09T02:06:30.535Z,41.25
2022-09-09T02:07:22.926Z,41.19
2022-09-09T02:08:11.716Z,41.42
2022-09-09T02:09:08.932Z,41.12
2022-09-09T02:09:59.164Z,41.49
2022-09-09T02:11:06.092Z,41.22
2022-09-09T02:11:59.438Z,41.25
2022-09-09T02:12:49.341Z,41.02
2022-09-09T02:13:41.019Z,41.18
2022-09-09T02:14:35.318Z,41.19
2022-09-09T02:15:29.317Z,41.24
2022-09-09T02:16:25.211Z,41.36
2022-09-09T02:17:18.466Z,41.39
2022-09-09T02:18:12.524Z,41.29
2022-09-09T02:19:08.575Z,41.41
2022-09-09T02:19:58.247Z,40.95
2022-09-09T02:20:49.802Z,41.24
2022-09-09T02:21:43.247Z,41.07
2022-09-09T02:22:36.024Z,41.43
2022-09-09T02:23:29.421Z,41.09
2022-09-09T02:24:27.800Z,40.98
2022-09-09T02:25:17.752Z,41.04
2022-09-09T02:26:08.897Z,41.05
2022-09-09T02:26:59.257Z,40.99
2022-09-09T02:27:48.929Z,40.97
2022-09-09T02:28:39.423Z,41.08
2022-09-09T02:29:35.616Z,41.17
2022-09-09T02:30:27.904Z,40.98
2022-09-09T02:31:19.977Z,41.03
2022-09-09T02:32:09.582Z,41.31
2022-09-09T02:32:59.348Z,41.23
2022-09-09T02:33:50.539Z,40.97
2022-09-09T02:35:20.242Z,41.09
2022-09-09T02:36:15.533Z,40.83
2022-09-09T02:37:10.095Z,40.88
2022-09-09T02:38:02.524Z,40.92
2022-09-09T02:38:55.216Z,41.03
2022-09-09T02:39:55.672Z,41.25
2022-09-09T02:40:48.825Z,40.86
2022-09-09T02:41:39.988Z,41.27
2022-09-09T02:42:32.851Z,41.15
2022-09-09T02:43:26.431Z,40.99
2022-09-09T02:45:22.038Z,41.04
2022-09-09T02:46:16.138Z,40.99
2022-09-09T02:47:21.157Z,40.99
2022-09-09T02:48:25.449Z,41.16
2022-09-09T02:49:19.002Z,41.16
2022-09-09T02:50:18.169Z,40.89
2022-09-09T02:51:02.264Z,40.83
2022-09-09T02:51:59.911Z,41.04
2022-09-09T02:52:41.827Z,40.82
2022-09-09T02:53:32.971Z,40.80
2022-09-09T02:54:37.085Z,41.05
2022-09-09T02:55:32.893Z,40.77
2022-09-09T02:56:28.616Z,40.71
2022-09-09T02:57:24.419Z,40.97
2022-09-09T02:58:16.031Z,40.78
2022-09-09T02:59:05.906Z,41.04
2022-09-09T03:00:02.414Z,41.06
2022-09-09T03:00:54.072Z,41.14
2022-09-09T03:01:45.029Z,40.72
2022-09-09T03:02:38.484Z,41.02
2022-09-09T03:03:30.360Z,40.87
2022-09-09T03:04:22.418Z,41.00
2022-09-09T03:05:22.370Z,40.86
2022-09-09T03:06:13.966Z,40.83
2022-09-09T03:07:07.338Z,41.04
2022-09-09T03:08:00.014Z,41.09
2022-09-09T03:08:50.271Z,40.84
2022-09-09T03:09:44.029Z,40.83
2022-09-09T03:11:40.623Z,41.04
2022-09-09T03:12:34.226Z,40.80
2022-09-09T03:13:28.014Z,41.30
2022-09-09T03:14:21.935Z,41.15
2022-09-09T03:15:18.829Z,40.93
2022-09-09T03:16:15.219Z,41.11
2022-09-09T03:17:08.559Z,40.94
2022-09-09T03:18:02.209Z,40.96
2022-09-09T03:18:55.079Z,40.78
2022-09-09T03:19:49.638Z,40.82
2022-09-09T03:20:47.029Z,40.96
2022-09-09T03:21:41.114Z,40.91
2022-09-09T03:22:34.885Z,41.01
2022-09-09T03:23:28.598Z,40.58
2022-09-09T03:24:23.110Z,40.71
2022-09-09T03:25:16.281Z,40.68
2022-09-09T03:27:12.085Z,40.79
2022-09-09T03:28:04.895Z,40.71
2022-09-09T03:29:10.473Z,40.81
2022-09-09T03:30:03.609Z,40.71
2022-09-09T03:30:55.637Z,40.75
2022-09-09T03:31:51.114Z,40.37
2022-09-09T03:32:47.103Z,40.71
2022-09-09T03:33:39.098Z,40.78
2022-09-09T03:34:29.505Z,40.72
2022-09-09T03:35:21.272Z,41.02
2022-09-09T03:36:15.268Z,40.96
2022-09-09T03:37:05.885Z,40.77
2022-09-09T03:37:57.262Z,40.62
2022-09-09T03:38:50.099Z,40.89
2022-09-09T03:39:41.618Z,40.68
2022-09-09T03:40:32.622Z,40.62
2022-09-09T03:41:29.524Z,40.65
2022-09-09T03:42:18.137Z,40.68
2022-09-09T03:43:08.701Z,40.49
2022-09-09T03:44:00.682Z,40.61
2022-09-09T03:44:51.818Z,40.86
2022-09-09T03:45:42.971Z,40.82
2022-09-09T03:46:38.416Z,40.60
2022-09-09T03:47:28.992Z,40.87
2022-09-09T03:48:21.582Z,40.79
2022-09-09T03:49:12.434Z,40.89
2022-09-09T03:50:01.925Z,40.74
2022-09-09T03:50:55.919Z,40.77
2022-09-09T03:51:45.174Z,40.76
2022-09-09T03:52:35.206Z,41.01
2022-09-09T03:53:24.132Z,40.80
2022-09-09T03:54:14.190Z,40.75
2022-09-09T03:55:03.737Z,40.80
2022-09-09T03:55:58.567Z,40.60
2022-09-09T03:56:49.221Z,40.66
2022-09-09T03:57:41.276Z,41.08
2022-09-09T03:58:33.374Z,40.72
2022-09-09T03:59:23.260Z,41.06
2022-09-09T04:00:15.877Z,40.90
2022-09-09T04:01:18.571Z,40.71
2022-09-09T04:02:08.923Z,40.80
2022-09-09T04:03:01.780Z,41.00
2022-09-09T04:03:53.498Z,41.05
2022-09-09T04:04:44.273Z,40.54
2022-09-09T04:05:37.316Z,40.66
2022-09-09T04:06:33.238Z,40.69
2022-09-09T04:07:24.777Z,40.74
2022-09-09T04:08:17.402Z,40.79
2022-09-09T04:09:08.436Z,40.79
2022-09-09T04:09:59.126Z,40.76
2022-09-09T04:10:50.048Z,40.93
2022-09-09T04:11:47.969Z,40.65
2022-09-09T04:12:38.377Z,40.86
2022-09-09T04:13:29.218Z,40.98
2022-09-09T04:14:19.723Z,40.88
2022-09-09T04:15:09.009Z,40.58
2022-09-09T04:16:00.347Z,40.68
2022-09-09T04:16:55.210Z,40.66
2022-09-09T04:17:45.759Z,40.54
2022-09-09T04:18:36.140Z,40.79
2022-09-09T04:19:26.358Z,40.81
2022-09-09T04:20:18.122Z,41.01
2022-09-09T04:21:12.691Z,41.01
2022-09-09T04:22:04.149Z,40.64
2022-09-09T04:22:55.926Z,40.96
2022-09-09T04:23:47.320Z,40.52
2022-09-09T04:24:39.041Z,40.69
2022-09-09T04:25:32.770Z,41.00
2022-09-09T04:26:22.588Z,40.97
2022-09-09T04:27:11.215Z,40.89
2022-09-09T04:27:59.293Z,41.08
2022-09-09T04:28:49.183Z,40.80
2022-09-09T04:29:38.517Z,40.93
2022-09-09T04:30:25.435Z,40.82
2022-09-09T04:31:22.397Z,40.88
2022-09-09T04:32:11.024Z,40.88
2022-09-09T04:33:01.039Z,40.92
2022-09-09T04:33:50.660Z,41.01
2022-09-09T04:35:18.207Z,40.90
2022-09-09T04:36:12.216Z,41.03
2022-09-09T04:37:01.071Z,40.88
2022-09-09T04:37:49.998Z,41.01
2022-09-09T04:38:38.693Z,41.06
2022-09-09T04:39:27.005Z,41.15
2022-09-09T04:40:14.520Z,41.06
2022-09-09T04:41:05.739Z,41.07
2022-09-09T04:41:56.560Z,40.89
2022-09-09T04:42:44.505Z,41.00
2022-09-09T04:43:33.660Z,40.79
2022-09-09T04:44:25.027Z,41.05
2022-09-09T04:45:16.755Z,41.03
2022-09-09T04:46:12.790Z,40.86
2022-09-09T04:47:01.847Z,40.92
2022-09-09T04:47:50.879Z,40.97
2022-09-09T04:48:39.102Z,40.97
2022-09-09T04:49:27.505Z,40.95
2022-09-09T04:50:17.426Z,40.88
2022-09-09T04:51:05.379Z,40.95
2022-09-09T04:51:57.560Z,41.12
2022-09-09T04:52:46.323Z,41.03
2022-09-09T04:53:35.999Z,40.91
2022-09-09T04:54:25.928Z,40.98
2022-09-09T04:55:14.665Z,41.13
2022-09-09T04:56:03.910Z,41.14
2022-09-09T04:56:55.936Z,41.11
2022-09-09T04:57:45.603Z,41.25
2022-09-09T04:58:33.649Z,41.20
2022-09-09T04:59:22.139Z,41.10
2022-09-09T05:00:10.104Z,41.09
2022-09-09T05:00:56.318Z,41.10
2022-09-09T05:01:46.926Z,41.16
2022-09-09T05:02:37.633Z,41.01
2022-09-09T05:03:26.966Z,41.07
2022-09-09T05:04:15.981Z,41.13
2022-09-09T05:05:03.956Z,41.18
2022-09-09T05:05:55.233Z,41.12
2022-09-09T05:06:46.293Z,41.18
2022-09-09T05:07:43.046Z,41.20
2022-09-09T05:08:35.140Z,41.19
2022-09-09T05:09:25.893Z,41.12
2022-09-09T05:10:16.867Z,41.22
2022-09-09T05:11:13.082Z,40.94
2022-09-09T05:12:04.893Z,41.18
2022-09-09T05:12:57.889Z,41.05
2022-09-09T05:13:50.287Z,40.97
2022-09-09T05:15:20.397Z,40.97
2022-09-09T05:16:15.074Z,41.16
2022-09-09T05:17:03.807Z,40.94
2022-09-09T05:17:53.164Z,41.26
2022-09-09T05:18:43.932Z,41.12
2022-09-09T05:19:37.194Z,41.19
2022-09-09T05:20:22.446Z,41.07
2022-09-09T05:21:18.461Z,41.06
2022-09-09T05:22:08.592Z,41.22
2022-09-09T05:22:57.754Z,40.91
2022-09-09T05:23:52.075Z,41.04
2022-09-09T05:25:20.334Z,41.18
2022-09-09T05:26:17.227Z,41.01
2022-09-09T05:27:05.569Z,41.17
2022-09-09T05:27:53.685Z,41.24
2022-09-09T05:28:41.636Z,41.31
2022-09-09T05:29:30.508Z,40.83
2022-09-09T05:30:17.686Z,41.05
2022-09-09T05:31:19.532Z,41.18
2022-09-09T05:32:11.475Z,41.28
2022-09-09T05:33:01.814Z,41.13
2022-09-09T05:33:52.982Z,41.23
2022-09-09T05:34:44.681Z,40.97
2022-09-09T05:35:36.114Z,41.24
2022-09-09T05:36:37.114Z,41.12
2022-09-09T05:37:28.592Z,41.01
2022-09-09T05:38:20.375Z,41.26
2022-09-09T05:39:11.983Z,40.98
2022-09-09T05:40:04.475Z,41.21
2022-09-09T05:40:56.301Z,40.84
2022-09-09T05:41:55.872Z,40.85
2022-09-09T05:42:49.264Z,41.19
2022-09-09T05:43:39.852Z,40.88
2022-09-09T05:44:29.937Z,41.20
2022-09-09T05:45:19.529Z,41.22
2022-09-09T05:46:12.349Z,41.12
2022-09-09T05:47:07.762Z,40.89
2022-09-09T05:47:56.422Z,41.05
2022-09-09T05:48:44.520Z,41.03
2022-09-09T05:49:33.524Z,40.72
2022-09-09T05:50:22.038Z,41.24
2022-09-09T05:51:12.021Z,41.15
2022-09-09T05:52:10.881Z,41.23
2022-09-09T05:53:01.111Z,41.00
2022-09-09T05:53:52.131Z,41.15
2022-09-09T05:54:44.688Z,41.25
2022-09-09T05:55:36.097Z,40.82
2022-09-09T05:56:28.898Z,41.16
2022-09-09T05:58:22.469Z,41.04
2022-09-09T05:59:12.602Z,41.20
2022-09-09T06:00:05.553Z,41.32
2022-09-09T06:00:55.518Z,41.21
2022-09-09T06:01:50.165Z,41.23
2022-09-09T06:02:41.609Z,41.48
2022-09-09T06:03:34.358Z,41.36
2022-09-09T06:04:25.805Z,41.12
2022-09-09T06:05:17.493Z,41.24
2022-09-09T06:06:18.420Z,41.03
2022-09-09T06:08:12.401Z,40.80
2022-09-09T06:09:03.138Z,41.04
2022-09-09T06:09:55.799Z,41.22
2022-09-09T06:10:47.289Z,41.03
2022-09-09T06:11:42.127Z,41.22
2022-09-09T06:12:34.094Z,41.05
2022-09-09T06:13:25.498Z,41.08
2022-09-09T06:14:15.490Z,41.05
2022-09-09T06:15:04.565Z,41.27
2022-09-09T06:16:00.180Z,41.31
2022-09-09T06:17:00.273Z,41.22
2022-09-09T06:17:52.000Z,41.44
2022-09-09T06:18:43.654Z,41.41
2022-09-09T06:19:32.820Z,41.26
2022-09-09T06:20:21.616Z,41.08
2022-09-09T06:21:11.509Z,41.37
2022-09-09T06:22:09.188Z,41.20
2022-09-09T06:22:59.379Z,41.19
2022-09-09T06:23:47.893Z,41.16
2022-09-09T06:24:39.221Z,41.18
2022-09-09T06:25:31.153Z,41.40
2022-09-09T06:26:23.088Z,41.05
2022-09-09T06:27:13.769Z,41.20
2022-09-09T06:28:03.169Z,41.30
2022-09-09T06:28:53.896Z,41.18
2022-09-09T06:29:42.028Z,41.35
2022-09-09T06:30:30.383Z,41.14
2022-09-09T06:31:29.736Z,41.03
2022-09-09T06:32:17.800Z,41.14
2022-09-09T06:33:06.062Z,41.29
2022-09-09T06:33:58.083Z,41.18
2022-09-09T06:34:49.692Z,41.46
2022-09-09T06:35:40.220Z,41.22
2022-09-09T06:36:38.115Z,41.39
2022-09-09T06:37:28.588Z,41.20
2022-09-09T06:38:18.939Z,41.33
2022-09-09T06:39:14.456Z,41.36
2022-09-09T06:40:03.730Z,41.38
2022-09-09T06:40:55.735Z,41.28
2022-09-09T06:41:54.360Z,41.14
2022-09-09T06:42:40.688Z,41.31
2022-09-09T06:43:30.806Z,41.16
2022-09-09T06:44:21.622Z,41.47
2022-09-09T06:45:10.716Z,41.20
2022-09-09T06:46:11.345Z,41.42
2022-09-09T06:47:07.854Z,41.39
2022-09-09T06:47:56.382Z,41.25
2022-09-09T06:48:44.304Z,41.45
2022-09-09T06:49:32.656Z,41.35
2022-09-09T06:50:20.851Z,41.40
2022-09-09T06:51:10.507Z,41.29
2022-09-09T06:52:05.618Z,41.15
2022-09-09T06:52:56.788Z,41.37
2022-09-09T06:53:48.073Z,41.21
2022-09-09T06:55:21.835Z,41.05
2022-09-09T06:56:14.782Z,41.52
2022-09-09T06:57:20.795Z,41.38
2022-09-09T06:58:11.443Z,41.17
2022-09-09T06:59:00.273Z,41.13
2022-09-09T06:59:49.042Z,41.51
2022-09-09T07:00:36.982Z,41.20
2022-09-09T07:01:26.114Z,41.17
2022-09-09T07:02:19.865Z,41.22
2022-09-09T07:03:07.923Z,41.25
2022-09-09T07:04:00.381Z,41.53
2022-09-09T07:04:49.762Z,41.52
2022-09-09T07:05:40.274Z,41.38
2022-09-09T07:06:35.330Z,41.46
2022-09-09T07:07:31.250Z,41.60
2022-09-09T07:08:21.247Z,41.64
2022-09-09T07:09:12.675Z,41.40
2022-09-09T07:10:03.959Z,41.52
2022-09-09T07:10:55.616Z,41.41
2022-09-09T07:11:46.328Z,41.45
2022-09-09T07:12:44.332Z,41.44
2022-09-09T07:13:38.201Z,41.48
2022-09-09T07:14:28.311Z,41.30
2022-09-09T07:15:18.208Z,41.33
2022-09-09T07:16:08.271Z,41.40
2022-09-09T07:16:59.525Z,41.59
2022-09-09T07:17:53.134Z,41.33
2022-09-09T07:18:42.898Z,41.17
2022-09-09T07:19:32.662Z,41.46
2022-09-09T07:20:22.921Z,41.50
2022-09-09T07:21:12.386Z,41.57
2022-09-09T07:22:03.814Z,41.59
2022-09-09T07:22:59.576Z,41.67
2022-09-09T07:23:53.004Z,41.71
2022-09-09T07:24:44.786Z,41.63
2022-09-09T07:25:37.002Z,41.57
2022-09-09T07:26:27.269Z,41.79
2022-09-09T07:27:16.614Z,41.57
2022-09-09T07:28:08.627Z,41.66
2022-09-09T07:28:56.664Z,41.52
2022-09-09T07:29:45.503Z,41.59
2022-09-09T07:30:35.582Z,41.45
2022-09-09T07:31:25.428Z,41.63
2022-09-09T07:32:14.633Z,41.60
2022-09-09T07:33:03.101Z,41.66
2022-09-09T07:33:58.733Z,41.86
2022-09-09T07:34:47.397Z,41.77
2022-09-09T07:35:36.604Z,41.70
2022-09-09T07:36:33.878Z,41.75
2022-09-09T07:37:23.572Z,41.72
2022-09-09T07:38:12.817Z,41.69
2022-09-09T07:39:09.979Z,41.82
2022-09-09T07:40:00.733Z,41.90
2022-09-09T07:40:53.329Z,41.74
2022-09-09T07:41:43.534Z,41.94
2022-09-09T07:42:35.282Z,41.86
2022-09-09T07:43:27.806Z,41.85
2022-09-09T07:44:26.117Z,41.67
2022-09-09T07:45:13.774Z,42.04
2022-09-09T07:46:06.923Z,42.12
2022-09-09T07:46:59.032Z,42.08
2022-09-09T07:47:51.788Z,41.88
2022-09-09T07:48:44.060Z,41.99
2022-09-09T07:49:36.671Z,41.86
2022-09-09T07:50:27.885Z,41.90
2022-09-09T07:51:19.379Z,41.95
2022-09-09T07:52:09.344Z,41.76
2022-09-09T07:53:05.887Z,42.34
2022-09-09T07:53:58.263Z,42.11
2022-09-09T07:54:50.438Z,42.03
2022-09-09T07:55:41.815Z,41.91
2022-09-09T07:56:33.701Z,42.15
2022-09-09T07:57:23.048Z,42.12
2022-09-09T07:58:13.572Z,41.80
2022-09-09T07:59:02.969Z,42.12
2022-09-09T07:59:54.166Z,42.08
2022-09-09T08:00:45.442Z,41.92
2022-09-09T08:01:36.965Z,42.09
2022-09-09T08:02:25.906Z,42.03
2022-09-09T08:03:16.207Z,42.12
2022-09-09T08:04:05.594Z,42.10
2022-09-09T08:04:55.269Z,42.01
2022-09-09T08:05:43.078Z,41.95
2022-09-09T08:06:31.253Z,42.04
2022-09-09T08:07:17.431Z,42.05
2022-09-09T08:08:07.438Z,41.95
2022-09-09T08:08:55.724Z,42.06
2022-09-09T08:09:45.522Z,42.13
2022-09-09T08:10:35.324Z,42.01
2022-09-09T08:11:27.691Z,42.06
2022-09-09T08:12:17.487Z,42.32
2022-09-09T08:13:17.784Z,42.14
2022-09-09T08:14:05.589Z,41.74
2022-09-09T08:14:55.871Z,42.06
2022-09-09T08:15:44.202Z,41.85
2022-09-09T08:16:35.766Z,41.93
2022-09-09T08:17:25.229Z,41.83
2022-09-09T08:18:18.376Z,41.80
2022-09-09T08:19:06.216Z,41.86
2022-09-09T08:19:56.704Z,41.67
2022-09-09T08:20:44.681Z,41.93
2022-09-09T08:21:34.256Z,41.87
2022-09-09T08:22:23.015Z,41.86
2022-09-09T08:23:15.465Z,41.92
2022-09-09T08:24:03.972Z,41.70
2022-09-09T08:24:53.141Z,41.66
2022-09-09T08:25:42.517Z,41.93
2022-09-09T08:26:30.549Z,41.81
2022-09-09T08:27:20.134Z,41.73
2022-09-09T08:28:11.617Z,41.56
2022-09-09T08:29:00.602Z,41.80
2022-09-09T08:29:49.264Z,41.68
2022-09-09T08:30:36.430Z,41.79
2022-09-09T08:32:13.984Z,41.88
2022-09-09T08:33:03.066Z,41.74
2022-09-09T08:33:58.061Z,41.66
2022-09-09T08:34:46.744Z,41.67
2022-09-09T08:35:35.740Z,41.62
2022-09-09T08:36:24.891Z,41.87
2022-09-09T08:37:14.371Z,41.70
2022-09-09T08:38:07.662Z,41.50
2022-09-09T08:39:07.539Z,41.69
2022-09-09T08:39:58.701Z,41.50
2022-09-09T08:40:48.090Z,41.54
2022-09-09T08:41:31.585Z,41.38
2022-09-09T08:42:28.787Z,41.33
2022-09-09T08:43:21.273Z,41.58
2022-09-09T08:44:20.353Z,41.54
2022-09-09T08:45:29.333Z,41.25
2022-09-09T08:46:38.196Z,41.57
2022-09-09T08:47:31.764Z,41.48
2022-09-09T08:48:21.947Z,41.45
2022-09-09T08:49:14.230Z,41.63
2022-09-09T08:50:17.636Z,41.33
2022-09-09T08:51:10.217Z,41.32
2022-09-09T08:52:02.865Z,41.42
2022-09-09T08:52:49.228Z,41.62
2022-09-09T08:53:39.795Z,41.53
2022-09-09T08:54:51.201Z,41.41
2022-09-09T08:55:37.142Z,41.48
2022-09-09T08:56:25.318Z,41.50
2022-09-09T08:57:14.325Z,41.50
2022-09-09T08:57:56.621Z,41.39
2022-09-09T08:58:49.889Z,41.19
2022-09-09T08:59:41.548Z,41.41
2022-09-09T09:00:33.750Z,41.29
2022-09-09T09:01:15.521Z,41.46
2022-09-09T09:02:22.632Z,41.24
2022-09-09T09:03:14.324Z,41.37
2022-09-09T09:04:11.712Z,41.14
2022-09-09T09:04:56.613Z,41.46
2022-09-09T09:05:57.064Z,41.35
2022-09-09T09:07:06.917Z,41.30
2022-09-09T09:08:10.414Z,41.34
2022-09-09T09:09:14.248Z,41.29
2022-09-09T09:10:15.189Z,40.98
2022-09-09T09:11:13.536Z,41.36
2022-09-09T09:12:03.648Z,41.12
2022-09-09T09:12:53.944Z,41.13
2022-09-09T09:13:35.044Z,41.02
2022-09-09T09:15:32.900Z,40.92
2022-09-09T09:16:30.666Z,40.78
2022-09-09T09:17:21.492Z,40.67
2022-09-09T09:18:10.383Z,40.67
2022-09-09T09:19:03.305Z,40.50
2022-09-09T09:19:51.151Z,40.68
2022-09-09T09:20:49.870Z,40.70
2022-09-09T09:21:41.281Z,40.70
2022-09-09T09:22:48.288Z,40.51
2022-09-09T09:23:46.479Z,40.40
2022-09-09T09:24:37.974Z,40.73
2022-09-09T09:25:31.345Z,40.28
2022-09-09T09:26:21.640Z,40.41
2022-09-09T09:27:09.499Z,40.51
2022-09-09T09:28:03.262Z,40.38
2022-09-09T09:30:03.161Z,40.24
2022-09-09T09:30:50.005Z,40.21
2022-09-09T09:31:40.792Z,40.21
2022-09-09T09:32:32.002Z,40.14
2022-09-09T09:33:26.565Z,40.23
2022-09-09T09:35:22.520Z,40.02
2022-09-09T09:36:14.068Z,40.14
2022-09-09T09:37:10.677Z,40.26
2022-09-09T09:41:39.587Z,39.95
2022-09-09T09:42:35.024Z,39.92
2022-09-09T09:43:32.226Z,39.91
2022-09-09T09:44:35.797Z,40.03
2022-09-09T09:45:55.237Z,40.15
2022-09-09T09:46:52.850Z,40.10
2022-09-09T09:47:46.465Z,39.94
2022-09-09T09:48:40.667Z,39.88
2022-09-09T09:49:34.549Z,39.93
2022-09-09T09:51:34.584Z,39.79
2022-09-09T09:52:27.588Z,39.70
2022-09-09T09:53:21.451Z,39.73
2022-09-09T09:54:22.061Z,40.16
2022-09-09T09:55:18.184Z,39.84
2022-09-09T09:56:07.599Z,39.93
2022-09-09T09:56:58.484Z,39.79
2022-09-09T09:57:49.168Z,39.85
2022-09-09T09:58:39.438Z,39.71
2022-09-09T09:59:40.717Z,39.78
2022-09-09T10:00:35.879Z,39.78
2022-09-09T10:01:26.269Z,40.02
2022-09-09T10:02:25.876Z,39.72
2022-09-09T10:03:25.618Z,39.69
2022-09-09T10:04:33.016Z,39.64
2022-09-09T10:05:37.806Z,39.78
2022-09-09T10:06:28.479Z,40.00
2022-09-09T10:07:26.957Z,39.72
2022-09-09T10:08:09.916Z,39.73
2022-09-09T10:09:04.073Z,39.82
2022-09-09T10:09:56.597Z,39.88
2022-09-09T10:10:52.893Z,39.70
2022-09-09T10:11:46.544Z,39.68
2022-09-09T10:12:31.648Z,39.71
2022-09-09T10:13:25.890Z,39.76
2022-09-09T10:14:38.447Z,39.55
2022-09-09T10:15:55.597Z,39.55
2022-09-09T10:17:06.034Z,39.68
2022-09-09T10:17:58.490Z,39.33
2022-09-09T10:18:40.527Z,39.71
2022-09-09T10:19:31.453Z,39.54
2022-09-09T10:20:24.841Z,39.46
2022-09-09T10:21:33.052Z,39.62
2022-09-09T10:22:37.148Z,39.57
2022-09-09T10:23:32.817Z,39.47
2022-09-09T10:24:25.533Z,39.48
2022-09-09T10:25:14.208Z,39.71
2022-09-09T10:26:20.601Z,39.52
2022-09-09T10:27:29.192Z,39.71
2022-09-09T10:28:26.927Z,39.48
2022-09-09T10:29:22.058Z,39.10
2022-09-09T10:30:28.590Z,39.37
2022-09-09T10:31:40.840Z,39.67
2022-09-09T10:32:40.938Z,39.48
2022-09-09T10:33:35.306Z,39.35
2022-09-09T10:34:47.478Z,39.44
2022-09-09T10:35:54.899Z,39.34
2022-09-09T10:36:47.423Z,39.38
2022-09-09T10:37:32.208Z,39.36
2022-09-09T10:38:29.302Z,39.35
2022-09-09T10:39:33.220Z,39.37
2022-09-09T10:40:23.966Z,39.36
2022-09-09T10:41:17.900Z,38.95
2022-09-09T10:42:03.254Z,39.17
2022-09-09T10:42:53.531Z,38.68
2022-09-09T10:44:00.177Z,38.76
2022-09-09T10:44:46.917Z,38.70
2022-09-09T10:45:39.006Z,38.70
2022-09-09T10:46:39.153Z,38.81
2022-09-09T10:47:42.763Z,38.57
2022-09-09T10:48:39.548Z,38.80
2022-09-09T10:49:25.556Z,38.62
2022-09-09T10:50:59.863Z,38.45
2022-09-09T10:51:35.984Z,38.78
2022-09-09T10:52:27.817Z,38.63
2022-09-09T10:53:31.517Z,38.77
2022-09-09T10:54:34.525Z,39.01
2022-09-09T10:55:31.924Z,38.73
2022-09-09T10:56:29.615Z,38.67
2022-09-09T10:57:28.859Z,38.17
2022-09-09T10:58:23.242Z,38.23
2022-09-09T10:59:20.142Z,38.05
2022-09-09T11:00:17.524Z,38.24
2022-09-09T11:01:11.413Z,37.98
2022-09-09T11:02:05.609Z,37.81
2022-09-09T11:02:59.693Z,38.06
2022-09-09T11:03:51.018Z,37.90
2022-09-09T11:04:42.902Z,37.87
2022-09-09T11:05:37.265Z,37.80
2022-09-09T11:06:29.213Z,38.11
2022-09-09T11:07:20.949Z,37.73
2022-09-09T11:08:11.410Z,37.34
2022-09-09T11:09:01.629Z,38.29
2022-09-09T11:09:51.604Z,38.00
2022-09-09T11:10:55.839Z,38.14
2022-09-09T11:12:04.314Z,38.29
2022-09-09T11:12:52.742Z,38.00
2022-09-09T11:13:38.094Z,38.20
2022-09-09T11:14:40.834Z,38.18
2022-09-09T11:15:38.927Z,38.14
2022-09-09T11:16:22.277Z,38.09
2022-09-09T11:17:10.879Z,38.30
2022-09-09T11:18:02.347Z,38.40
2022-09-09T11:18:54.464Z,38.29
2022-09-09T11:19:48.824Z,38.27
2022-09-09T11:20:45.280Z,38.49
2022-09-09T11:21:36.337Z,38.11
2022-09-09T11:22:34.268Z,38.39
2022-09-09T11:23:25.045Z,38.20
2022-09-09T11:24:17.587Z,38.23
2022-09-09T11:25:15.239Z,38.25
2022-09-09T11:26:15.468Z,38.41
2022-09-09T11:27:13.088Z,38.54
2022-09-09T11:28:01.103Z,38.94
2022-09-09T11:29:04.946Z,39.35
2022-09-09T11:30:02.091Z,39.19
2022-09-09T11:31:02.816Z,39.42
2022-09-09T11:31:58.897Z,39.24
2022-09-09T11:32:40.257Z,39.39
2022-09-09T11:33:25.098Z,39.17
2022-09-09T11:34:29.610Z,38.95
2022-09-09T11:35:33.671Z,39.47
2022-09-09T11:36:43.937Z,39.24
2022-09-09T11:37:27.859Z,39.27
2022-09-09T11:38:18.581Z,39.59
2022-09-09T11:39:15.192Z,38.89
2022-09-09T11:40:26.497Z,39.13
2022-09-09T11:42:17.658Z,38.89
2022-09-09T11:43:15.689Z,39.21
2022-09-09T11:44:06.216Z,39.30
2022-09-09T11:44:56.787Z,39.15
2022-09-09T11:45:48.859Z,39.09
2022-09-09T11:46:55.593Z,39.00
2022-09-09T11:47:47.357Z,39.10